sensor_id;sensor_type;location;lat;lon;timestamp;pressure;altitude;pressure_sealevel;temperature;humidity
72262;BME280;60173;52.112;8.648;2023-01-13T00:01:55;99331.84;;;9.13;100.00
72262;BME280;60173;52.112;8.648;2023-01-13T00:04:21;99326.44;;;9.13;100.00
72262;BME280;60173;52.112;8.648;2023-01-13T00:06:48;99331.38;;;9.11;100.00
72262;BME280;60173;52.112;8.648;2023-01-13T00:09:14;99318.00;;;9.05;100.00
72262;BME280;60173;52.112;8.648;2023-01-13T00:11:41;99324.19;;;9.06;100.00
72262;BME280;60173;52.112;8.648;2023-01-13T00:14:07;99331.16;;;8.90;100.00
72262;BME280;60173;52.112;8.648;2023-01-13T00:16:34;99318.56;;;8.94;100.00
72262;BME280;60173;52.112;8.648;2023-01-13T00:19:00;99317.63;;;8.90;100.00
72262;BME280;60173;52.112;8.648;2023-01-13T00:21:27;99321.25;;;8.85;100.00
72262;BME280;60173;52.112;8.648;2023-01-13T00:23:54;99320.03;;;8.91;100.00
72262;BME280;60173;52.112;8.648;2023-01-13T00:26:23;99311.56;;;8.84;100.00
72262;BME280;60173;52.112;8.648;2023-01-13T00:28:50;99301.03;;;8.74;100.00
72262;BME280;60173;52.112;8.648;2023-01-13T00:31:21;99292.56;;;8.75;100.00
72262;BME280;60173;52.112;8.648;2023-01-13T00:33:48;99297.97;;;8.67;100.00
72262;BME280;60173;52.112;8.648;2023-01-13T00:36:15;99285.09;;;8.72;100.00
72262;BME280;60173;52.112;8.648;2023-01-13T00:38:42;99291.00;;;8.74;100.00
72262;BME280;60173;52.112;8.648;2023-01-13T00:41:12;99305.63;;;8.73;100.00
72262;BME280;60173;52.112;8.648;2023-01-13T00:43:39;99290.34;;;8.69;100.00
72262;BME280;60173;52.112;8.648;2023-01-13T00:46:07;99300.06;;;8.78;100.00
72262;BME280;60173;52.112;8.648;2023-01-13T00:48:34;99294.69;;;8.87;100.00
72262;BME280;60173;52.112;8.648;2023-01-13T00:51:03;99304.69;;;8.78;100.00
72262;BME280;60173;52.112;8.648;2023-01-13T00:53:36;99293.25;;;8.90;100.00
72262;BME280;60173;52.112;8.648;2023-01-13T00:56:16;99295.63;;;8.82;100.00
72262;BME280;60173;52.112;8.648;2023-01-13T00:58:52;99302.50;;;8.89;100.00
72262;BME280;60173;52.112;8.648;2023-01-13T01:01:20;99295.31;;;8.84;99.82
72262;BME280;60173;52.112;8.648;2023-01-13T01:03:51;99306.31;;;8.88;99.37
72262;BME280;60173;52.112;8.648;2023-01-13T01:06:24;99300.09;;;8.87;99.07
72262;BME280;60173;52.112;8.648;2023-01-13T01:08:52;99299.31;;;8.95;98.61
72262;BME280;60173;52.112;8.648;2023-01-13T01:11:23;99305.50;;;8.87;98.55
72262;BME280;60173;52.112;8.648;2023-01-13T01:13:51;99306.94;;;8.85;99.15
72262;BME280;60173;52.112;8.648;2023-01-13T01:16:21;99304.19;;;8.76;99.14
72262;BME280;60173;52.112;8.648;2023-01-13T01:18:49;99321.16;;;8.59;98.76
72262;BME280;60173;52.112;8.648;2023-01-13T01:21:17;99322.25;;;8.49;98.96
72262;BME280;60173;52.112;8.648;2023-01-13T01:23:44;99322.44;;;8.62;98.21
72262;BME280;60173;52.112;8.648;2023-01-13T01:26:16;99326.06;;;8.48;97.47
72262;BME280;60173;52.112;8.648;2023-01-13T01:28:44;99315.25;;;8.48;96.90
72262;BME280;60173;52.112;8.648;2023-01-13T01:31:13;99324.91;;;8.41;96.99
72262;BME280;60173;52.112;8.648;2023-01-13T01:33:40;99315.59;;;8.33;96.08
72262;BME280;60173;52.112;8.648;2023-01-13T01:36:08;99323.72;;;8.33;96.33
72262;BME280;60173;52.112;8.648;2023-01-13T01:38:36;99317.66;;;8.27;95.38
72262;BME280;60173;52.112;8.648;2023-01-13T01:41:03;99331.50;;;8.26;95.68
72262;BME280;60173;52.112;8.648;2023-01-13T01:46:13;99327.81;;;8.22;96.30
72262;BME280;60173;52.112;8.648;2023-01-13T01:48:41;99328.41;;;8.19;96.21
72262;BME280;60173;52.112;8.648;2023-01-13T01:51:10;99326.59;;;8.28;95.69
72262;BME280;60173;52.112;8.648;2023-01-13T01:53:38;99324.00;;;8.23;95.98
72262;BME280;60173;52.112;8.648;2023-01-13T01:56:07;99323.88;;;8.28;95.79
72262;BME280;60173;52.112;8.648;2023-01-13T01:58:38;99328.06;;;8.11;95.55
72262;BME280;60173;52.112;8.648;2023-01-13T02:01:06;99329.03;;;8.15;94.49
72262;BME280;60173;52.112;8.648;2023-01-13T02:03:36;99334.09;;;8.08;94.30
72262;BME280;60173;52.112;8.648;2023-01-13T02:06:05;99327.50;;;8.01;93.70
72262;BME280;60173;52.112;8.648;2023-01-13T02:08:32;99323.53;;;7.98;93.69
72262;BME280;60173;52.112;8.648;2023-01-13T02:10:58;99332.13;;;8.00;92.60
72262;BME280;60173;52.112;8.648;2023-01-13T02:13:25;99332.75;;;7.97;92.71
72262;BME280;60173;52.112;8.648;2023-01-13T02:16:16;99327.00;;;7.90;91.67
72262;BME280;60173;52.112;8.648;2023-01-13T02:19:20;99329.00;;;7.84;91.53
72262;BME280;60173;52.112;8.648;2023-01-13T02:21:59;99324.00;;;7.78;91.10
72262;BME280;60173;52.112;8.648;2023-01-13T02:27:42;99326.59;;;7.83;91.18
72262;BME280;60173;52.112;8.648;2023-01-13T02:30:46;99353.22;;;7.67;90.55
72262;BME280;60173;52.112;8.648;2023-01-13T02:34:16;99352.38;;;7.66;91.39
72262;BME280;60173;52.112;8.648;2023-01-13T02:36:27;99349.69;;;7.66;90.33
72262;BME280;60173;52.112;8.648;2023-01-13T02:39:05;99363.44;;;7.56;90.29
72262;BME280;60173;52.112;8.648;2023-01-13T02:41:47;99356.31;;;7.60;90.56
72262;BME280;60173;52.112;8.648;2023-01-13T02:44:19;99348.88;;;7.66;88.93
72262;BME280;60173;52.112;8.648;2023-01-13T02:47:08;99346.31;;;7.61;88.30
72262;BME280;60173;52.112;8.648;2023-01-13T02:49:39;99343.53;;;7.52;88.59
72262;BME280;60173;52.112;8.648;2023-01-13T02:52:15;99355.22;;;7.61;88.42
72262;BME280;60173;52.112;8.648;2023-01-13T02:54:44;99359.22;;;7.64;88.13
72262;BME280;60173;52.112;8.648;2023-01-13T02:57:14;99353.53;;;7.52;88.43
72262;BME280;60173;52.112;8.648;2023-01-13T02:59:43;99338.72;;;7.49;88.74
72262;BME280;60173;52.112;8.648;2023-01-13T03:02:12;99323.34;;;7.50;88.53
72262;BME280;60173;52.112;8.648;2023-01-13T03:04:50;99327.34;;;7.52;87.57
72262;BME280;60173;52.112;8.648;2023-01-13T03:12:38;99340.38;;;7.36;88.42
72262;BME280;60173;52.112;8.648;2023-01-13T03:15:18;99346.28;;;7.24;89.04
72262;BME280;60173;52.112;8.648;2023-01-13T03:17:54;99347.38;;;7.37;89.98
72262;BME280;60173;52.112;8.648;2023-01-13T03:20:27;99341.25;;;7.32;89.01
72262;BME280;60173;52.112;8.648;2023-01-13T03:23:04;99341.97;;;7.37;88.53
72262;BME280;60173;52.112;8.648;2023-01-13T03:25:42;99337.78;;;7.31;88.52
72262;BME280;60173;52.112;8.648;2023-01-13T03:28:22;99334.78;;;7.33;89.17
72262;BME280;60173;52.112;8.648;2023-01-13T03:30:55;99334.63;;;7.15;89.58
72262;BME280;60173;52.112;8.648;2023-01-13T03:33:28;99342.41;;;7.17;89.69
72262;BME280;60173;52.112;8.648;2023-01-13T03:36:01;99338.41;;;7.14;89.19
72262;BME280;60173;52.112;8.648;2023-01-13T03:38:36;99330.44;;;7.09;88.72
72262;BME280;60173;52.112;8.648;2023-01-13T03:41:12;99333.91;;;7.10;88.45
72262;BME280;60173;52.112;8.648;2023-01-13T03:43:45;99340.63;;;7.12;89.25
72262;BME280;60173;52.112;8.648;2023-01-13T03:46:18;99342.63;;;7.20;88.29
72262;BME280;60173;52.112;8.648;2023-01-13T03:48:49;99339.41;;;7.18;89.11
72262;BME280;60173;52.112;8.648;2023-01-13T03:51:19;99339.41;;;7.18;89.41
72262;BME280;60173;52.112;8.648;2023-01-13T03:53:55;99335.78;;;7.23;87.69
72262;BME280;60173;52.112;8.648;2023-01-13T03:56:28;99317.78;;;7.32;86.75
72262;BME280;60173;52.112;8.648;2023-01-13T03:58:57;99333.72;;;7.56;85.12
72262;BME280;60173;52.112;8.648;2023-01-13T04:04:38;99350.47;;;7.44;85.19
72262;BME280;60173;52.112;8.648;2023-01-13T04:07:22;99343.34;;;7.48;84.96
72262;BME280;60173;52.112;8.648;2023-01-13T04:09:55;99342.50;;;7.62;84.16
72262;BME280;60173;52.112;8.648;2023-01-13T04:12:26;99338.94;;;7.53;84.66
72262;BME280;60173;52.112;8.648;2023-01-13T04:14:54;99341.72;;;7.61;84.97
72262;BME280;60173;52.112;8.648;2023-01-13T04:17:21;99342.94;;;7.55;84.53
72262;BME280;60173;52.112;8.648;2023-01-13T04:19:47;99346.34;;;7.47;84.90
72262;BME280;60173;52.112;8.648;2023-01-13T04:22:13;99350.75;;;7.43;85.68
72262;BME280;60173;52.112;8.648;2023-01-13T04:24:40;99354.56;;;7.42;86.41
72262;BME280;60173;52.112;8.648;2023-01-13T04:27:06;99349.53;;;7.49;85.53
72262;BME280;60173;52.112;8.648;2023-01-13T04:29:32;99353.94;;;7.59;85.99
72262;BME280;60173;52.112;8.648;2023-01-13T04:31:59;99347.72;;;7.58;85.50
72262;BME280;60173;52.112;8.648;2023-01-13T04:34:25;99348.56;;;7.45;86.47
72262;BME280;60173;52.112;8.648;2023-01-13T04:36:53;99342.34;;;7.44;85.87
72262;BME280;60173;52.112;8.648;2023-01-13T04:39:20;99340.16;;;7.46;86.47
72262;BME280;60173;52.112;8.648;2023-01-13T04:41:46;99331.31;;;7.55;86.36
72262;BME280;60173;52.112;8.648;2023-01-13T04:44:12;99337.75;;;7.45;86.69
72262;BME280;60173;52.112;8.648;2023-01-13T04:46:39;99338.34;;;7.42;87.26
72262;BME280;60173;52.112;8.648;2023-01-13T04:49:05;99325.97;;;7.41;87.12
72262;BME280;60173;52.112;8.648;2023-01-13T04:51:31;99321.78;;;7.35;86.62
72262;BME280;60173;52.112;8.648;2023-01-13T04:53:57;99324.16;;;7.36;86.56
72262;BME280;60173;52.112;8.648;2023-01-13T04:56:24;99326.78;;;7.28;86.85
72262;BME280;60173;52.112;8.648;2023-01-13T04:58:50;99326.50;;;7.15;86.96
72262;BME280;60173;52.112;8.648;2023-01-13T05:01:16;99324.00;;;7.19;85.18
72262;BME280;60173;52.112;8.648;2023-01-13T05:03:43;99329.03;;;7.12;85.23
72262;BME280;60173;52.112;8.648;2023-01-13T05:06:09;99317.41;;;7.11;85.16
72262;BME280;60173;52.112;8.648;2023-01-13T05:08:36;99320.63;;;6.99;85.46
72262;BME280;60173;52.112;8.648;2023-01-13T05:11:02;99313.41;;;7.09;84.09
72262;BME280;60173;52.112;8.648;2023-01-13T05:13:28;99306.59;;;7.11;83.03
72262;BME280;60173;52.112;8.648;2023-01-13T05:15:55;99307.09;;;7.13;83.47
72262;BME280;60173;52.112;8.648;2023-01-13T05:18:21;99311.31;;;7.06;83.54
72262;BME280;60173;52.112;8.648;2023-01-13T05:20:48;99310.63;;;7.00;83.81
72262;BME280;60173;52.112;8.648;2023-01-13T05:23:14;99303.63;;;6.99;83.36
72262;BME280;60173;52.112;8.648;2023-01-13T05:25:41;99306.66;;;6.97;83.55
72262;BME280;60173;52.112;8.648;2023-01-13T05:28:09;99299.25;;;7.03;82.97
72262;BME280;60173;52.112;8.648;2023-01-13T05:30:39;99305.53;;;6.98;83.06
72262;BME280;60173;52.112;8.648;2023-01-13T05:33:06;99306.03;;;7.00;83.21
72262;BME280;60173;52.112;8.648;2023-01-13T05:35:32;99302.66;;;6.95;82.97
72262;BME280;60173;52.112;8.648;2023-01-13T05:37:59;99289.25;;;6.90;83.66
72262;BME280;60173;52.112;8.648;2023-01-13T05:40:25;99296.03;;;7.01;82.20
72262;BME280;60173;52.112;8.648;2023-01-13T05:45:29;99296.84;;;6.88;83.27
72262;BME280;60173;52.112;8.648;2023-01-13T05:47:56;99293.34;;;6.87;83.38
72262;BME280;60173;52.112;8.648;2023-01-13T05:50:22;99295.06;;;6.83;83.66
72262;BME280;60173;52.112;8.648;2023-01-13T05:52:49;99287.75;;;6.84;83.55
72262;BME280;60173;52.112;8.648;2023-01-13T05:55:15;99289.75;;;6.78;84.11
72262;BME280;60173;52.112;8.648;2023-01-13T05:57:41;99283.06;;;6.75;83.43
72262;BME280;60173;52.112;8.648;2023-01-13T06:00:08;99273.06;;;6.76;83.83
72262;BME280;60173;52.112;8.648;2023-01-13T06:02:34;99283.25;;;6.65;83.73
72262;BME280;60173;52.112;8.648;2023-01-13T06:05:01;99289.75;;;6.64;83.80
72262;BME280;60173;52.112;8.648;2023-01-13T06:07:27;99292.88;;;6.71;83.48
72262;BME280;60173;52.112;8.648;2023-01-13T06:09:54;99290.06;;;6.76;82.95
72262;BME280;60173;52.112;8.648;2023-01-13T06:12:20;99279.16;;;6.82;83.15
72262;BME280;60173;52.112;8.648;2023-01-13T06:14:46;99266.28;;;6.78;82.72
72262;BME280;60173;52.112;8.648;2023-01-13T06:17:14;99281.47;;;6.74;82.91
72262;BME280;60173;52.112;8.648;2023-01-13T06:19:41;99258.97;;;6.65;82.77
72262;BME280;60173;52.112;8.648;2023-01-13T06:22:14;99253.28;;;6.67;82.97
72262;BME280;60173;52.112;8.648;2023-01-13T06:24:42;99266.97;;;6.84;81.88
72262;BME280;60173;52.112;8.648;2023-01-13T06:27:09;99254.25;;;6.85;81.59
72262;BME280;60173;52.112;8.648;2023-01-13T06:29:36;99271.97;;;6.77;81.98
72262;BME280;60173;52.112;8.648;2023-01-13T06:32:05;99276.47;;;6.82;81.21
72262;BME280;60173;52.112;8.648;2023-01-13T06:34:33;99279.06;;;6.87;81.20
72262;BME280;60173;52.112;8.648;2023-01-13T06:37:01;99271.16;;;6.76;81.83
72262;BME280;60173;52.112;8.648;2023-01-13T06:39:29;99274.88;;;6.81;81.83
72262;BME280;60173;52.112;8.648;2023-01-13T06:41:56;99284.06;;;6.79;81.88
72262;BME280;60173;52.112;8.648;2023-01-13T06:44:23;99282.97;;;6.81;81.57
72262;BME280;60173;52.112;8.648;2023-01-13T06:46:50;99278.66;;;6.79;81.75
72262;BME280;60173;52.112;8.648;2023-01-13T06:49:17;99280.56;;;6.65;82.37
72262;BME280;60173;52.112;8.648;2023-01-13T06:51:46;99279.16;;;6.68;81.46
72262;BME280;60173;52.112;8.648;2023-01-13T06:54:13;99299.84;;;6.72;81.22
72262;BME280;60173;52.112;8.648;2023-01-13T06:56:39;99302.56;;;6.72;81.54
72262;BME280;60173;52.112;8.648;2023-01-13T06:59:05;99308.25;;;6.85;81.54
72262;BME280;60173;52.112;8.648;2023-01-13T07:01:32;99323.03;;;6.87;81.09
72262;BME280;60173;52.112;8.648;2023-01-13T07:03:58;99308.34;;;6.93;81.33
72262;BME280;60173;52.112;8.648;2023-01-13T07:06:24;99313.03;;;7.01;81.29
72262;BME280;60173;52.112;8.648;2023-01-13T07:08:51;99316.59;;;7.11;80.47
72262;BME280;60173;52.112;8.648;2023-01-13T07:11:17;99320.00;;;7.16;80.00
72262;BME280;60173;52.112;8.648;2023-01-13T07:13:43;99321.66;;;7.26;80.11
72262;BME280;60173;52.112;8.648;2023-01-13T07:16:11;99324.50;;;7.21;80.19
72262;BME280;60173;52.112;8.648;2023-01-13T07:18:37;99318.88;;;7.17;80.93
72262;BME280;60173;52.112;8.648;2023-01-13T07:21:05;99331.41;;;7.13;81.31
72262;BME280;60173;52.112;8.648;2023-01-13T07:23:38;99335.22;;;7.12;81.51
72262;BME280;60173;52.112;8.648;2023-01-13T07:26:06;99340.81;;;7.02;82.19
72262;BME280;60173;52.112;8.648;2023-01-13T07:28:33;99344.31;;;7.02;82.65
72262;BME280;60173;52.112;8.648;2023-01-13T07:30:59;99339.41;;;7.18;82.11
72262;BME280;60173;52.112;8.648;2023-01-13T07:33:26;99349.97;;;7.29;81.35
72262;BME280;60173;52.112;8.648;2023-01-13T07:35:57;99355.91;;;7.17;82.11
72262;BME280;60173;52.112;8.648;2023-01-13T07:38:24;99341.59;;;7.16;82.32
72262;BME280;60173;52.112;8.648;2023-01-13T07:40:50;99350.13;;;7.10;82.01
72262;BME280;60173;52.112;8.648;2023-01-13T07:43:17;99341.09;;;7.14;82.27
72262;BME280;60173;52.112;8.648;2023-01-13T07:45:43;99347.41;;;7.23;81.69
72262;BME280;60173;52.112;8.648;2023-01-13T07:48:09;99357.59;;;7.27;82.00
72262;BME280;60173;52.112;8.648;2023-01-13T07:50:36;99353.97;;;7.31;81.22
72262;BME280;60173;52.112;8.648;2023-01-13T07:53:02;99339.59;;;7.22;81.01
72262;BME280;60173;52.112;8.648;2023-01-13T07:55:28;99345.88;;;7.17;81.07
72262;BME280;60173;52.112;8.648;2023-01-13T07:57:55;99357.63;;;6.99;81.63
72262;BME280;60173;52.112;8.648;2023-01-13T08:00:21;99365.63;;;7.04;81.19
72262;BME280;60173;52.112;8.648;2023-01-13T08:02:48;99367.03;;;7.15;80.68
72262;BME280;60173;52.112;8.648;2023-01-13T08:05:14;99353.69;;;7.19;80.40
72262;BME280;60173;52.112;8.648;2023-01-13T08:07:41;99361.78;;;7.33;79.91
72262;BME280;60173;52.112;8.648;2023-01-13T08:10:07;99365.09;;;7.30;79.61
72262;BME280;60173;52.112;8.648;2023-01-13T08:12:34;99360.38;;;7.35;79.23
72262;BME280;60173;52.112;8.648;2023-01-13T08:15:00;99363.88;;;7.36;79.17
72262;BME280;60173;52.112;8.648;2023-01-13T08:17:26;99362.56;;;7.47;78.20
72262;BME280;60173;52.112;8.648;2023-01-13T08:19:53;99365.16;;;7.52;77.70
72262;BME280;60173;52.112;8.648;2023-01-13T08:22:19;99366.44;;;7.55;77.75
72262;BME280;60173;52.112;8.648;2023-01-13T08:24:46;99361.94;;;7.64;77.13
72262;BME280;60173;52.112;8.648;2023-01-13T08:27:12;99359.75;;;7.75;75.84
72262;BME280;60173;52.112;8.648;2023-01-13T08:29:39;99354.06;;;7.76;76.23
72262;BME280;60173;52.112;8.648;2023-01-13T08:32:05;99351.91;;;7.64;75.44
72262;BME280;60173;52.112;8.648;2023-01-13T08:34:31;99360.50;;;7.66;76.19
72262;BME280;60173;52.112;8.648;2023-01-13T08:36:58;99356.56;;;7.50;75.71
72262;BME280;60173;52.112;8.648;2023-01-13T08:39:24;99359.75;;;7.52;76.09
72262;BME280;60173;52.112;8.648;2023-01-13T08:41:51;99364.91;;;7.62;75.39
72262;BME280;60173;52.112;8.648;2023-01-13T08:44:17;99363.13;;;7.58;75.26
72262;BME280;60173;52.112;8.648;2023-01-13T08:46:43;99362.66;;;7.56;76.12
72262;BME280;60173;52.112;8.648;2023-01-13T08:49:10;99362.72;;;7.64;75.51
72262;BME280;60173;52.112;8.648;2023-01-13T08:51:36;99367.00;;;7.65;74.92
72262;BME280;60173;52.112;8.648;2023-01-13T08:54:02;99366.72;;;7.67;75.15
72262;BME280;60173;52.112;8.648;2023-01-13T08:56:29;99376.94;;;7.56;75.65
72262;BME280;60173;52.112;8.648;2023-01-13T08:58:59;99366.13;;;7.56;74.51
72262;BME280;60173;52.112;8.648;2023-01-13T09:01:26;99369.22;;;7.63;74.50
72262;BME280;60173;52.112;8.648;2023-01-13T09:03:53;99359.75;;;7.52;74.34
72262;BME280;60173;52.112;8.648;2023-01-13T09:06:19;99378.53;;;7.57;74.25
72262;BME280;60173;52.112;8.648;2023-01-13T09:08:46;99372.56;;;7.46;74.55
72262;BME280;60173;52.112;8.648;2023-01-13T09:11:17;99373.97;;;7.44;75.14
72262;BME280;60173;52.112;8.648;2023-01-13T09:13:44;99375.38;;;7.41;75.47
72262;BME280;60173;52.112;8.648;2023-01-13T09:16:10;99374.84;;;7.53;74.50
72262;BME280;60173;52.112;8.648;2023-01-13T09:18:36;99375.53;;;7.59;75.17
72262;BME280;60173;52.112;8.648;2023-01-13T09:21:03;99378.81;;;7.69;74.80
72262;BME280;60173;52.112;8.648;2023-01-13T09:23:29;99381.38;;;7.75;74.49
72262;BME280;60173;52.112;8.648;2023-01-13T09:25:55;99392.13;;;7.66;74.10
72262;BME280;60173;52.112;8.648;2023-01-13T09:28:22;99379.41;;;7.66;74.83
72262;BME280;60173;52.112;8.648;2023-01-13T09:30:48;99408.91;;;7.77;73.61
72262;BME280;60173;52.112;8.648;2023-01-13T09:33:15;99417.22;;;7.80;73.81
72262;BME280;60173;52.112;8.648;2023-01-13T09:35:41;99407.19;;;7.81;73.56
72262;BME280;60173;52.112;8.648;2023-01-13T09:38:07;99420.34;;;7.74;73.98
72262;BME280;60173;52.112;8.648;2023-01-13T09:40:36;99421.53;;;7.81;74.19
72262;BME280;60173;52.112;8.648;2023-01-13T09:43:23;99415.53;;;7.70;73.64
72262;BME280;60173;52.112;8.648;2023-01-13T09:45:59;99420.63;;;7.72;73.92
72262;BME280;60173;52.112;8.648;2023-01-13T09:48:34;99401.53;;;7.68;73.61
72262;BME280;60173;52.112;8.648;2023-01-13T09:51:11;99431.91;;;7.88;73.37
72262;BME280;60173;52.112;8.648;2023-01-13T09:53:47;99419.63;;;7.82;73.58
72262;BME280;60173;52.112;8.648;2023-01-13T09:56:15;99414.94;;;7.74;72.72
72262;BME280;60173;52.112;8.648;2023-01-13T09:58:43;99414.16;;;7.73;72.91
72262;BME280;60173;52.112;8.648;2023-01-13T10:01:28;99425.31;;;7.80;72.37
72262;BME280;60173;52.112;8.648;2023-01-13T10:04:13;99413.22;;;7.78;72.25
72262;BME280;60173;52.112;8.648;2023-01-13T10:06:42;99414.69;;;7.84;72.00
72262;BME280;60173;52.112;8.648;2023-01-13T10:09:13;99415.19;;;7.86;72.09
72262;BME280;60173;52.112;8.648;2023-01-13T10:11:45;99404.88;;;7.88;71.49
72262;BME280;60173;52.112;8.648;2023-01-13T10:14:18;99412.34;;;7.68;72.24
72262;BME280;60173;52.112;8.648;2023-01-13T10:19:55;99416.41;;;7.80;72.00
72262;BME280;60173;52.112;8.648;2023-01-13T10:22:55;99423.03;;;7.74;72.04
72262;BME280;60173;52.112;8.648;2023-01-13T10:28:12;99418.41;;;7.88;72.61
72262;BME280;60173;52.112;8.648;2023-01-13T10:30:41;99404.09;;;7.87;71.35
72262;BME280;60173;52.112;8.648;2023-01-13T10:33:21;99407.88;;;7.86;71.95
72262;BME280;60173;52.112;8.648;2023-01-13T10:36:15;99407.56;;;8.02;71.23
72262;BME280;60173;52.112;8.648;2023-01-13T10:38:44;99403.78;;;8.11;70.78
72262;BME280;60173;52.112;8.648;2023-01-13T10:43:45;99399.97;;;8.12;70.38
72262;BME280;60173;52.112;8.648;2023-01-13T10:46:22;99399.84;;;8.18;70.05
72262;BME280;60173;52.112;8.648;2023-01-13T10:48:55;99414.97;;;8.19;70.20
72262;BME280;60173;52.112;8.648;2023-01-13T10:56:41;99409.88;;;8.17;70.91
72262;BME280;60173;52.112;8.648;2023-01-13T10:59:12;99412.53;;;8.08;70.77
72262;BME280;60173;52.112;8.648;2023-01-13T11:01:42;99414.00;;;8.14;70.14
72262;BME280;60173;52.112;8.648;2023-01-13T11:04:41;99408.59;;;8.14;70.62
72262;BME280;60173;52.112;8.648;2023-01-13T11:07:23;99422.56;;;8.30;69.76
72262;BME280;60173;52.112;8.648;2023-01-13T11:10:17;99425.13;;;8.35;70.01
72262;BME280;60173;52.112;8.648;2023-01-13T11:15:19;99417.44;;;8.29;69.07
72262;BME280;60173;52.112;8.648;2023-01-13T11:17:54;99418.13;;;8.34;70.16
72262;BME280;60173;52.112;8.648;2023-01-13T11:20:27;99431.13;;;8.32;69.93
72262;BME280;60173;52.112;8.648;2023-01-13T11:22:55;99429.13;;;8.38;70.34
72262;BME280;60173;52.112;8.648;2023-01-13T11:25:25;99415.50;;;8.43;70.70
72262;BME280;60173;52.112;8.648;2023-01-13T11:27:59;99417.81;;;8.58;69.76
72262;BME280;60173;52.112;8.648;2023-01-13T11:30:35;99428.47;;;8.55;69.40
72262;BME280;60173;52.112;8.648;2023-01-13T11:38:52;99421.63;;;8.57;70.07
72262;BME280;60173;52.112;8.648;2023-01-13T11:41:51;99424.88;;;8.68;69.01
72262;BME280;60173;52.112;8.648;2023-01-13T11:44:19;99421.59;;;8.80;68.58
72262;BME280;60173;52.112;8.648;2023-01-13T11:46:49;99422.69;;;8.79;68.75
72262;BME280;60173;52.112;8.648;2023-01-13T11:49:24;99419.75;;;8.67;69.24
72262;BME280;60173;52.112;8.648;2023-01-13T11:51:58;99416.56;;;8.65;70.17
72262;BME280;60173;52.112;8.648;2023-01-13T11:57:23;99424.28;;;8.49;69.99
72262;BME280;60173;52.112;8.648;2023-01-13T12:05:42;99426.66;;;8.50;69.86
72262;BME280;60173;52.112;8.648;2023-01-13T12:08:41;99426.31;;;8.43;70.49
72262;BME280;60173;52.112;8.648;2023-01-13T12:11:20;99420.47;;;8.50;71.11
72262;BME280;60173;52.112;8.648;2023-01-13T12:16:25;99437.75;;;8.40;71.49
72262;BME280;60173;52.112;8.648;2023-01-13T12:19:18;99427.53;;;8.37;71.90
72262;BME280;60173;52.112;8.648;2023-01-13T12:22:10;99434.34;;;8.34;71.67
72262;BME280;60173;52.112;8.648;2023-01-13T12:24:48;99424.53;;;8.38;71.22
72262;BME280;60173;52.112;8.648;2023-01-13T12:27:23;99433.31;;;8.67;71.02
72262;BME280;60173;52.112;8.648;2023-01-13T12:29:52;99423.69;;;8.83;71.45
72262;BME280;60173;52.112;8.648;2023-01-13T12:32:28;99418.19;;;8.97;70.90
72262;BME280;60173;52.112;8.648;2023-01-13T12:35:10;99425.50;;;9.05;69.89
72262;BME280;60173;52.112;8.648;2023-01-13T12:38:07;99433.59;;;8.96;71.24
72262;BME280;60173;52.112;8.648;2023-01-13T12:43:28;99434.88;;;8.68;72.46
72262;BME280;60173;52.112;8.648;2023-01-13T12:53:54;99447.81;;;8.26;75.64
72262;BME280;60173;52.112;8.648;2023-01-13T12:56:41;99478.03;;;8.05;78.65
72262;BME280;60173;52.112;8.648;2023-01-13T13:01:44;99477.19;;;7.68;81.10
72262;BME280;60173;52.112;8.648;2023-01-13T13:04:13;99478.13;;;7.50;83.05
72262;BME280;60173;52.112;8.648;2023-01-13T13:07:18;99484.41;;;7.59;81.55
72262;BME280;60173;52.112;8.648;2023-01-13T13:09:48;99479.72;;;7.65;79.80
72262;BME280;60173;52.112;8.648;2023-01-13T13:19:55;99492.53;;;7.73;79.60
72262;BME280;60173;52.112;8.648;2023-01-13T13:27:45;99495.41;;;7.77;78.39
72262;BME280;60173;52.112;8.648;2023-01-13T13:30:28;99490.53;;;8.01;77.19
72262;BME280;60173;52.112;8.648;2023-01-13T13:38:39;99492.06;;;8.30;74.51
72262;BME280;60173;52.112;8.648;2023-01-13T13:41:18;99490.75;;;8.41;73.70
72262;BME280;60173;52.112;8.648;2023-01-13T13:43:44;99504.78;;;8.43;73.83
72262;BME280;60173;52.112;8.648;2023-01-13T13:46:31;99521.53;;;8.45;73.99
72262;BME280;60173;52.112;8.648;2023-01-13T13:48:58;99527.63;;;8.37;74.49
72262;BME280;60173;52.112;8.648;2023-01-13T13:51:32;99546.69;;;8.32;74.96
72262;BME280;60173;52.112;8.648;2023-01-13T13:54:03;99532.16;;;8.28;74.02
72262;BME280;60173;52.112;8.648;2023-01-13T13:56:35;99544.94;;;8.36;74.16
72262;BME280;60173;52.112;8.648;2023-01-13T13:59:03;99541.97;;;8.24;74.27
72262;BME280;60173;52.112;8.648;2023-01-13T14:01:36;99558.03;;;8.20;74.29
72262;BME280;60173;52.112;8.648;2023-01-13T14:04:08;99558.22;;;8.10;74.51
72262;BME280;60173;52.112;8.648;2023-01-13T14:06:36;99580.91;;;8.00;77.32
72262;BME280;60173;52.112;8.648;2023-01-13T14:09:03;99565.09;;;7.80;80.31
72262;BME280;60173;52.112;8.648;2023-01-13T14:11:31;99585.91;;;7.65;80.56
72262;BME280;60173;52.112;8.648;2023-01-13T14:14:20;99574.09;;;7.61;81.58
72262;BME280;60173;52.112;8.648;2023-01-13T14:16:46;99579.28;;;7.44;81.54
72262;BME280;60173;52.112;8.648;2023-01-13T14:19:34;99583.31;;;7.46;81.64
72262;BME280;60173;52.112;8.648;2023-01-13T14:22:02;99578.59;;;7.38;82.73
72262;BME280;60173;52.112;8.648;2023-01-13T14:24:30;99600.72;;;7.54;81.92
72262;BME280;60173;52.112;8.648;2023-01-13T14:27:08;99599.53;;;7.74;80.44
72262;BME280;60173;52.112;8.648;2023-01-13T14:29:35;99610.75;;;7.81;78.86
72262;BME280;60173;52.112;8.648;2023-01-13T14:32:03;99601.13;;;7.89;78.33
72262;BME280;60173;52.112;8.648;2023-01-13T14:34:31;99603.72;;;7.94;78.30
72262;BME280;60173;52.112;8.648;2023-01-13T14:36:59;99614.75;;;7.98;76.33
72262;BME280;60173;52.112;8.648;2023-01-13T14:39:39;99611.34;;;7.92;76.38
72262;BME280;60173;52.112;8.648;2023-01-13T14:42:15;99617.25;;;7.94;76.33
72262;BME280;60173;52.112;8.648;2023-01-13T14:44:46;99616.75;;;7.92;76.57
72262;BME280;60173;52.112;8.648;2023-01-13T14:47:26;99629.47;;;7.91;76.50
72262;BME280;60173;52.112;8.648;2023-01-13T14:52:52;99642.19;;;7.77;76.51
72262;BME280;60173;52.112;8.648;2023-01-13T14:55:23;99628.47;;;7.74;76.56